createdAt,value
2024-04-07T00:00:02.393Z,0.00
2024-04-07T00:01:02.407Z,0.00
2024-04-07T00:02:02.368Z,0.00
2024-04-07T00:03:02.383Z,0.00
2024-04-07T00:04:02.344Z,0.00
2024-04-07T00:05:02.320Z,0.00
2024-04-07T00:06:02.350Z,0.00
2024-04-07T00:07:02.389Z,0.00
2024-04-07T00:08:02.292Z,0.00
2024-04-07T00:09:02.296Z,0.00
2024-04-07T00:10:02.292Z,0.00
2024-04-07T00:11:02.283Z,0.00
2024-04-07T00:12:03.215Z,0.00
2024-04-07T00:13:02.315Z,0.00
2024-04-07T00:14:02.380Z,0.00
2024-04-07T00:15:02.242Z,0.00
2024-04-07T00:16:02.227Z,0.00
2024-04-07T00:17:02.218Z,0.00
2024-04-07T00:18:02.187Z,0.00
2024-04-07T00:19:02.239Z,0.00
2024-04-07T00:20:02.223Z,0.00
2024-04-07T00:21:02.178Z,0.00
2024-04-07T00:22:02.169Z,0.00
2024-04-07T00:23:02.168Z,0.00
2024-04-07T00:24:02.141Z,0.00
2024-04-07T00:25:02.151Z,0.00
2024-04-07T00:26:02.125Z,0.00
2024-04-07T00:27:02.091Z,0.00
2024-04-07T00:28:02.064Z,0.00
2024-04-07T00:29:02.081Z,0.00
2024-04-07T00:30:02.062Z,0.00
2024-04-07T00:31:02.064Z,0.00
2024-04-07T00:32:02.044Z,0.00
2024-04-07T00:33:02.056Z,0.00
2024-04-07T00:34:02.024Z,0.00
2024-04-07T00:35:02.020Z,0.00
2024-04-07T00:36:02.010Z,0.00
2024-04-07T00:37:02.029Z,0.00
2024-04-07T00:38:01.967Z,0.00
2024-04-07T00:39:01.970Z,0.00
2024-04-07T00:40:01.975Z,0.00
2024-04-07T00:41:01.968Z,0.00
2024-04-07T00:42:01.946Z,0.00
2024-04-07T00:43:01.971Z,0.00
2024-04-07T00:44:01.900Z,0.00
2024-04-07T00:45:01.885Z,0.00
2024-04-07T00:46:01.872Z,0.00
2024-04-07T00:47:01.867Z,0.00
2024-04-07T00:48:01.863Z,0.00
2024-04-07T00:49:01.934Z,0.00
2024-04-07T00:50:01.846Z,0.00
2024-04-07T00:51:01.816Z,0.00
2024-04-07T00:52:01.811Z,0.00
2024-04-07T00:53:01.834Z,0.00
2024-04-07T00:54:01.829Z,0.00
2024-04-07T00:55:02.201Z,0.00
2024-04-07T00:56:01.778Z,0.00
2024-04-07T00:57:01.838Z,0.00
2024-04-07T00:58:01.750Z,0.00
2024-04-07T00:59:01.740Z,0.00
2024-04-07T01:00:01.739Z,0.00
2024-04-07T01:01:01.759Z,0.00
2024-04-07T01:02:01.710Z,0.00
2024-04-07T01:03:01.709Z,0.00
2024-04-07T01:04:01.664Z,0.00
2024-04-07T01:05:01.757Z,0.00
2024-04-07T01:06:01.660Z,0.00
2024-04-07T01:07:01.717Z,0.00
2024-04-07T01:08:01.636Z,0.00
2024-04-07T01:09:01.635Z,0.00
2024-04-07T01:10:01.607Z,0.00
2024-04-07T01:11:01.607Z,0.00
2024-04-07T01:12:01.584Z,0.00
2024-04-07T01:13:02.583Z,0.00
2024-04-07T01:14:01.583Z,0.00
2024-04-07T01:15:01.579Z,0.00
2024-04-07T01:16:01.534Z,0.00
2024-04-07T01:17:01.528Z,0.00
2024-04-07T01:18:01.523Z,0.00
2024-04-07T01:19:01.538Z,0.00
2024-04-07T01:20:01.495Z,0.00
2024-04-07T01:21:01.502Z,0.00
2024-04-07T01:22:01.472Z,0.00
2024-04-07T01:23:01.473Z,0.00
2024-04-07T01:24:01.466Z,0.00
2024-04-07T01:25:01.495Z,0.00
2024-04-07T01:26:01.452Z,0.00
2024-04-07T01:27:01.459Z,0.00
2024-04-07T01:28:01.397Z,0.00
2024-04-07T01:29:01.408Z,0.00
2024-04-07T01:30:01.392Z,0.00
2024-04-07T01:31:01.442Z,0.00
2024-04-07T01:32:01.355Z,0.00
2024-04-07T01:33:01.362Z,0.00
2024-04-07T01:34:01.340Z,0.00
2024-04-07T01:35:01.341Z,0.00
2024-04-07T01:36:01.339Z,0.00
2024-04-07T01:37:01.313Z,0.00
2024-04-07T01:38:01.302Z,0.00
2024-04-07T01:39:01.287Z,0.00
2024-04-07T01:40:01.310Z,0.00
2024-04-07T01:41:01.296Z,0.00
2024-04-07T01:42:01.254Z,0.00
2024-04-07T01:43:01.270Z,0.00
2024-04-07T01:44:01.239Z,0.00
2024-04-07T01:45:01.254Z,0.00
2024-04-07T01:46:01.217Z,0.00
2024-04-07T01:47:01.194Z,0.00
2024-04-07T01:48:01.263Z,0.00
2024-04-07T01:49:01.238Z,0.00
2024-04-07T01:50:01.200Z,0.00
2024-04-07T01:51:01.166Z,0.00
2024-04-07T01:52:01.201Z,0.00
2024-04-07T01:53:01.187Z,0.00
2024-04-07T01:54:01.141Z,0.00
2024-04-07T01:55:01.227Z,0.00
2024-04-07T01:56:01.093Z,0.00
2024-04-07T01:57:01.121Z,0.00
2024-04-07T01:58:01.099Z,0.00
2024-04-07T01:59:01.066Z,0.00
2024-04-07T02:00:01.049Z,0.00
2024-04-07T02:01:01.179Z,0.00
2024-04-07T02:02:01.034Z,0.00
2024-04-07T02:03:01.025Z,0.00
2024-04-07T02:04:01.038Z,0.00
2024-04-07T02:05:01.015Z,0.00
2024-04-07T02:06:00.981Z,0.00
2024-04-07T02:07:01.035Z,0.00
2024-04-07T02:08:00.961Z,0.00
2024-04-07T02:09:00.944Z,0.00
2024-04-07T02:10:01.988Z,0.00
2024-04-07T02:11:00.996Z,0.00
2024-04-07T02:12:01.040Z,0.00
2024-04-07T02:13:00.981Z,0.00
2024-04-07T02:14:00.908Z,0.00
2024-04-07T02:15:00.899Z,0.00
2024-04-07T02:16:00.897Z,0.00
2024-04-07T02:17:00.859Z,0.00
2024-04-07T02:18:00.934Z,0.00
2024-04-07T02:19:00.857Z,0.00
2024-04-07T02:20:00.854Z,0.00
2024-04-07T02:21:00.831Z,0.00
2024-04-07T02:22:00.824Z,0.00
2024-04-07T02:23:00.814Z,0.00
2024-04-07T02:24:00.786Z,0.00
2024-04-07T02:25:00.809Z,0.00
2024-04-07T02:26:00.762Z,0.00
2024-04-07T02:27:00.772Z,0.00
2024-04-07T02:28:00.740Z,0.00
2024-04-07T02:29:00.738Z,0.00
2024-04-07T02:30:00.727Z,0.00
2024-04-07T02:31:00.788Z,0.00
2024-04-07T02:32:00.689Z,0.00
2024-04-07T02:33:00.691Z,0.00
2024-04-07T02:34:00.678Z,0.00
2024-04-07T02:35:00.674Z,0.00
2024-04-07T02:36:00.681Z,0.00
2024-04-07T02:37:00.708Z,0.00
2024-04-07T02:38:00.652Z,0.00
2024-04-07T02:39:00.671Z,0.00
2024-04-07T02:40:00.611Z,0.00
2024-04-07T02:41:00.628Z,0.00
2024-04-07T02:42:00.609Z,0.00
2024-04-07T02:43:00.615Z,0.00
2024-04-07T02:44:00.572Z,0.00
2024-04-07T02:45:00.664Z,0.00
2024-04-07T02:46:00.593Z,0.00
2024-04-07T02:47:00.542Z,0.00
2024-04-07T02:48:00.537Z,0.00
2024-04-07T02:49:00.581Z,0.00
2024-04-07T02:50:00.563Z,0.00
2024-04-07T02:51:00.556Z,0.00
2024-04-07T02:52:00.539Z,0.00
2024-04-07T02:53:00.481Z,0.00
2024-04-07T02:54:00.552Z,0.00
2024-04-07T02:55:00.502Z,0.00
2024-04-07T02:56:00.437Z,0.00
2024-04-07T02:57:00.430Z,0.00
2024-04-07T02:58:00.429Z,0.00
2024-04-07T02:59:00.422Z,0.00
2024-04-07T03:00:00.397Z,0.00
2024-04-07T03:01:00.455Z,0.00
2024-04-07T03:02:00.378Z,0.00
2024-04-07T03:03:00.359Z,0.00
2024-04-07T03:04:00.355Z,0.00
2024-04-07T03:05:00.365Z,0.00
2024-04-07T03:06:00.360Z,0.00
2024-04-07T03:07:00.977Z,0.00
2024-04-07T03:08:00.326Z,0.00
2024-04-07T03:09:01.296Z,0.00
2024-04-07T03:10:00.298Z,0.00
2024-04-07T03:11:00.290Z,0.00
2024-04-07T03:12:00.268Z,0.00
2024-04-07T03:13:00.304Z,0.00
2024-04-07T03:14:00.239Z,0.00
2024-04-07T03:15:00.244Z,0.00
2024-04-07T03:16:00.224Z,0.00
2024-04-07T03:17:01.284Z,0.00
2024-04-07T03:18:00.196Z,0.00
2024-04-07T03:19:00.254Z,0.00
2024-04-07T03:20:00.197Z,0.00
2024-04-07T03:21:00.201Z,0.00
2024-04-07T03:22:00.140Z,0.00
2024-04-07T03:23:00.191Z,0.00
2024-04-07T03:24:00.133Z,0.00
2024-04-07T03:25:00.169Z,0.00
2024-04-07T03:26:00.120Z,0.00
2024-04-07T03:27:00.108Z,0.00
2024-04-07T03:28:00.115Z,0.00
2024-04-07T03:29:00.094Z,0.00
2024-04-07T03:30:00.052Z,0.00
2024-04-07T03:31:00.086Z,0.00
2024-04-07T03:32:00.056Z,0.00
2024-04-07T03:33:00.026Z,0.00
2024-04-07T03:34:00.003Z,0.00
2024-04-07T03:35:00.003Z,0.00
2024-04-07T03:36:00.004Z,0.00
2024-04-07T03:37:00.023Z,0.00
2024-04-07T03:37:59.996Z,0.00
2024-04-07T03:38:59.980Z,0.00
2024-04-07T03:39:59.952Z,0.00
2024-04-07T03:41:00.076Z,0.00
2024-04-07T03:41:59.937Z,0.00
2024-04-07T03:42:59.980Z,0.00
2024-04-07T03:43:59.898Z,0.00
2024-04-07T03:44:59.902Z,0.00
2024-04-07T03:45:59.887Z,0.00
2024-04-07T03:46:59.879Z,0.00
2024-04-07T03:47:59.865Z,0.00
2024-04-07T03:49:00.055Z,0.00
2024-04-07T03:49:59.842Z,0.00
2024-04-07T03:50:59.853Z,0.00
2024-04-07T03:51:59.820Z,0.00
2024-04-07T03:52:59.810Z,0.00
2024-04-07T03:53:59.792Z,0.00
2024-04-07T03:54:59.995Z,0.00
2024-04-07T03:55:59.792Z,0.00
2024-04-07T03:56:59.785Z,0.00
2024-04-07T03:57:59.761Z,0.00
2024-04-07T03:58:59.767Z,0.00
2024-04-07T03:59:59.730Z,0.00
2024-04-07T04:01:00.724Z,0.00
2024-04-07T04:01:59.720Z,0.00
2024-04-07T04:02:59.694Z,0.00
2024-04-07T04:03:59.688Z,0.00
2024-04-07T04:04:59.709Z,0.00
2024-04-07T04:05:59.684Z,0.00
2024-04-07T04:06:59.676Z,0.00
2024-04-07T04:08:00.609Z,0.00
2024-04-07T04:08:59.645Z,0.00
2024-04-07T04:09:59.655Z,0.00
2024-04-07T04:10:59.636Z,0.00
2024-04-07T04:11:59.660Z,0.00
2024-04-07T04:12:59.631Z,0.00
2024-04-07T04:13:59.578Z,0.00
2024-04-07T04:14:59.561Z,0.00
2024-04-07T04:15:59.546Z,0.00
2024-04-07T04:16:59.555Z,0.00
2024-04-07T04:17:59.531Z,0.00
2024-04-07T04:18:59.575Z,0.00
2024-04-07T04:19:59.510Z,4.00
2024-04-07T04:20:59.514Z,4.00
2024-04-07T04:21:59.491Z,4.00
2024-04-07T04:22:59.470Z,4.00
2024-04-07T04:23:59.476Z,4.00
2024-04-07T04:24:59.490Z,8.00
2024-04-07T04:26:00.410Z,4.00
2024-04-07T04:26:59.443Z,8.00
2024-04-07T04:27:59.436Z,8.00
2024-04-07T04:28:59.410Z,8.00
2024-04-07T04:29:59.395Z,12.00
2024-04-07T04:30:59.405Z,16.00
2024-04-07T04:31:59.386Z,12.00
2024-04-07T04:32:59.382Z,16.00
2024-04-07T04:33:59.355Z,24.00
2024-04-07T04:34:59.349Z,24.00
2024-04-07T04:35:59.339Z,28.00
2024-04-07T04:36:59.364Z,36.00
2024-04-07T04:37:59.340Z,40.00
2024-04-07T04:38:59.313Z,44.00
2024-04-07T04:39:59.312Z,48.00
2024-04-07T04:40:59.274Z,56.00
2024-04-07T04:41:59.307Z,64.00
2024-04-07T04:42:59.293Z,68.00
2024-04-07T04:43:59.269Z,76.00
2024-04-07T04:44:59.240Z,84.00
2024-04-07T04:45:59.218Z,92.00
2024-04-07T04:46:59.223Z,96.00
2024-04-07T04:47:59.206Z,104.00
2024-04-07T04:48:59.292Z,112.00
2024-04-07T04:49:59.174Z,116.00
2024-04-07T04:50:59.178Z,132.00
2024-04-07T04:51:59.153Z,140.00
2024-04-07T04:52:59.185Z,156.00
2024-04-07T04:53:59.150Z,176.00
2024-04-07T04:54:59.124Z,196.00
2024-04-07T04:55:59.130Z,212.00
2024-04-07T04:56:59.099Z,228.00
2024-04-07T04:57:59.096Z,240.00
2024-04-07T04:58:59.080Z,256.00
2024-04-07T05:00:00.252Z,280.00
2024-04-07T05:01:00.022Z,304.00
2024-04-07T05:01:59.134Z,324.00
2024-04-07T05:02:59.027Z,344.00
2024-04-07T05:03:59.045Z,360.00
2024-04-07T05:04:59.020Z,376.00
2024-04-07T05:05:58.997Z,384.00
2024-04-07T05:06:59.018Z,392.00
2024-04-07T05:07:58.985Z,404.00
2024-04-07T05:08:59.960Z,412.00
2024-04-07T05:09:58.982Z,424.00
2024-04-07T05:10:58.973Z,436.00
2024-04-07T05:11:58.948Z,452.00
2024-04-07T05:12:58.915Z,468.00
2024-04-07T05:13:58.932Z,484.00
2024-04-07T05:14:58.880Z,512.00
2024-04-07T05:15:58.896Z,544.00
2024-04-07T05:16:58.866Z,564.00
2024-04-07T05:17:58.864Z,592.00
2024-04-07T05:18:59.054Z,628.00
2024-04-07T05:19:58.855Z,696.00
2024-04-07T05:20:58.838Z,776.00
2024-04-07T05:21:58.824Z,852.00
2024-04-07T05:22:58.815Z,912.00
2024-04-07T05:23:59.233Z,956.00
2024-04-07T05:24:58.793Z,1004.00
2024-04-07T05:25:58.786Z,1060.00
2024-04-07T05:26:59.443Z,1116.00
2024-04-07T05:27:58.780Z,1168.00
2024-04-07T05:28:59.424Z,1216.00
2024-04-07T05:29:58.733Z,1260.00
2024-04-07T05:30:58.748Z,1304.00
2024-04-07T05:31:59.687Z,1360.00
2024-04-07T05:32:59.463Z,1428.00
2024-04-07T05:33:58.718Z,1500.00
2024-04-07T05:34:58.758Z,1576.00
2024-04-07T05:35:59.638Z,1644.00
2024-04-07T05:36:58.691Z,1708.00
2024-04-07T05:37:58.685Z,1760.00
2024-04-07T05:39:02.802Z,1816.00
2024-04-07T05:40:01.478Z,1868.00
2024-04-07T05:40:58.667Z,1936.00
2024-04-07T05:41:58.625Z,2004.00
2024-04-07T05:42:58.608Z,2064.00
2024-04-07T05:43:58.796Z,2128.00
2024-04-07T05:44:58.583Z,2188.00
2024-04-07T05:45:58.580Z,2252.00
2024-04-07T05:46:58.597Z,2332.00
2024-04-07T05:47:59.513Z,2424.00
2024-04-07T05:48:58.621Z,2528.00
2024-04-07T05:50:02.181Z,2640.00
2024-04-07T05:51:00.605Z,2756.00
2024-04-07T05:51:58.586Z,2892.00
2024-04-07T05:52:58.522Z,3036.00
2024-04-07T05:53:58.505Z,3176.00
2024-04-07T05:54:58.457Z,3332.00
2024-04-07T05:55:59.918Z,3480.00
2024-04-07T05:56:58.439Z,3676.00
2024-04-07T05:57:58.444Z,3876.00
2024-04-07T05:58:58.474Z,3944.00
2024-04-07T05:59:58.419Z,3960.00
2024-04-07T06:00:58.439Z,4056.00
2024-04-07T06:01:59.367Z,4068.00
2024-04-07T06:02:58.406Z,4020.00
2024-04-07T06:03:58.374Z,4012.00
2024-04-07T06:04:59.326Z,3972.00
2024-04-07T06:05:58.357Z,4020.00
2024-04-07T06:06:59.711Z,4136.00
2024-04-07T06:07:58.736Z,4252.00
2024-04-07T06:08:58.525Z,4288.00
2024-04-07T06:09:58.659Z,4244.00
2024-04-07T06:10:58.701Z,4320.00
2024-04-07T06:11:58.397Z,4468.00
2024-04-07T06:12:58.327Z,4580.00
2024-04-07T06:13:58.523Z,4532.00
2024-04-07T06:14:58.312Z,4512.00
2024-04-07T06:15:58.249Z,4604.00
2024-04-07T06:16:58.246Z,4720.00
2024-04-07T06:17:58.950Z,4752.00
2024-04-07T06:18:58.210Z,4784.00
2024-04-07T06:19:58.216Z,4792.00
2024-04-07T06:20:58.201Z,4724.00
2024-04-07T06:21:58.178Z,4696.00
2024-04-07T06:22:58.174Z,4672.00
2024-04-07T06:23:58.143Z,4744.00
2024-04-07T06:24:58.163Z,4780.00
2024-04-07T06:25:58.220Z,4860.00
2024-04-07T06:26:58.120Z,4884.00
2024-04-07T06:27:58.103Z,4928.00
2024-04-07T06:28:58.103Z,4856.00
2024-04-07T06:29:58.101Z,4692.00
2024-04-07T06:30:58.074Z,4484.00
2024-04-07T06:31:58.112Z,4256.00
2024-04-07T06:32:58.057Z,4064.00
2024-04-07T06:33:58.110Z,3876.00
2024-04-07T06:34:58.109Z,3796.00
2024-04-07T06:35:58.031Z,3652.00
2024-04-07T06:36:58.023Z,3436.00
2024-04-07T06:37:58.102Z,3456.00
2024-04-07T06:38:57.975Z,3416.00
2024-04-07T06:39:57.995Z,3536.00
2024-04-07T06:40:58.024Z,3520.00
2024-04-07T06:41:57.960Z,3300.00
2024-04-07T06:42:57.929Z,3068.00
2024-04-07T06:43:57.982Z,3064.00
2024-04-07T06:44:57.954Z,3092.00
2024-04-07T06:45:57.904Z,2912.00
2024-04-07T06:46:57.930Z,2672.00
2024-04-07T06:47:57.900Z,2456.00
2024-04-07T06:48:57.879Z,2532.00
2024-04-07T06:49:57.945Z,2964.00
2024-04-07T06:50:57.992Z,3224.00
2024-04-07T06:51:57.862Z,3044.00
2024-04-07T06:52:57.918Z,2828.00
2024-04-07T06:53:57.812Z,2700.00
2024-04-07T06:54:57.808Z,2576.00
2024-04-07T06:55:57.870Z,2360.00
2024-04-07T06:56:57.824Z,2256.00
2024-04-07T06:57:57.775Z,2300.00
2024-04-07T06:58:57.832Z,2364.00
2024-04-07T06:59:57.761Z,2424.00
2024-04-07T07:00:57.737Z,2504.00
2024-04-07T07:01:57.785Z,2480.00
2024-04-07T07:02:57.722Z,2584.00
2024-04-07T07:03:57.705Z,2876.00
2024-04-07T07:04:57.760Z,3112.00
2024-04-07T07:05:57.684Z,3332.00
2024-04-07T07:06:57.687Z,3664.00
2024-04-07T07:07:57.751Z,4068.00
2024-04-07T07:08:57.661Z,4436.00
2024-04-07T07:09:57.649Z,4720.00
2024-04-07T07:10:57.661Z,5028.00
2024-04-07T07:11:57.636Z,5268.00
2024-04-07T07:12:57.621Z,5428.00
2024-04-07T07:13:57.679Z,5532.00
2024-04-07T07:14:57.593Z,5556.00
2024-04-07T07:15:57.591Z,5596.00
2024-04-07T07:16:57.633Z,5328.00
2024-04-07T07:17:57.564Z,4960.00
2024-04-07T07:18:57.531Z,4736.00
2024-04-07T07:19:57.594Z,4868.00
2024-04-07T07:20:57.525Z,4784.00
2024-04-07T07:21:57.521Z,4664.00
2024-04-07T07:22:57.578Z,4728.00
2024-04-07T07:23:57.499Z,4820.00
2024-04-07T07:24:57.473Z,4700.00
2024-04-07T07:25:57.527Z,4444.00
2024-04-07T07:26:57.469Z,4224.00
2024-04-07T07:27:57.439Z,4016.00
2024-04-07T07:28:57.479Z,3892.00
2024-04-07T07:29:57.413Z,3928.00
2024-04-07T07:30:57.422Z,4224.00
2024-04-07T07:31:57.467Z,4656.00
2024-04-07T07:32:57.386Z,4952.00
2024-04-07T07:33:57.386Z,5132.00
2024-04-07T07:34:57.384Z,5328.00
2024-04-07T07:35:57.355Z,5584.00
2024-04-07T07:36:57.345Z,5792.00
2024-04-07T07:37:57.404Z,5784.00
2024-04-07T07:38:57.328Z,5772.00
2024-04-07T07:39:57.305Z,5892.00
2024-04-07T07:40:57.387Z,6220.00
2024-04-07T07:41:57.274Z,6600.00
2024-04-07T07:42:57.284Z,6864.00
2024-04-07T07:43:57.273Z,7120.00
2024-04-07T07:44:57.258Z,7244.00
2024-04-07T07:45:57.272Z,7436.00
2024-04-07T07:46:57.262Z,7468.00
2024-04-07T07:47:57.220Z,7392.00
2024-04-07T07:48:57.206Z,7568.00
2024-04-07T07:49:57.217Z,7936.00
2024-04-07T07:50:57.203Z,8208.00
2024-04-07T07:51:57.218Z,8636.00
2024-04-07T07:52:57.231Z,9208.00
2024-04-07T07:53:57.171Z,9436.00
2024-04-07T07:54:57.147Z,9544.00
2024-04-07T07:55:57.173Z,9680.00
2024-04-07T07:56:57.122Z,10100.00
2024-04-07T07:57:57.117Z,10196.00
2024-04-07T07:58:58.100Z,10960.00
2024-04-07T08:00:05.231Z,11052.00
2024-04-07T08:00:58.091Z,10708.00
2024-04-07T08:01:57.111Z,11364.00
2024-04-07T08:02:57.067Z,11724.00
2024-04-07T08:03:57.057Z,12132.00
2024-04-07T08:04:58.018Z,12460.00
2024-04-07T08:05:57.039Z,12168.00
2024-04-07T08:06:57.038Z,11856.00
2024-04-07T08:07:57.010Z,11132.00
2024-04-07T08:08:56.994Z,10904.00
2024-04-07T08:09:56.972Z,10988.00
2024-04-07T08:10:57.100Z,11184.00
2024-04-07T08:11:56.963Z,11204.00
2024-04-07T08:12:56.938Z,11184.00
2024-04-07T08:13:56.952Z,11168.00
2024-04-07T08:14:56.933Z,11172.00
2024-04-07T08:15:57.862Z,11136.00
2024-04-07T08:16:57.871Z,11152.00
2024-04-07T08:17:56.903Z,11360.00
2024-04-07T08:18:56.900Z,11548.00
2024-04-07T08:19:56.906Z,11816.00
2024-04-07T08:20:56.855Z,11724.00
2024-04-07T08:21:56.880Z,11812.00
2024-04-07T08:22:56.873Z,11788.00
2024-04-07T08:23:56.816Z,10904.00
2024-04-07T08:24:56.832Z,10436.00
2024-04-07T08:25:56.876Z,10156.00
2024-04-07T08:26:56.790Z,9852.00
2024-04-07T08:27:56.804Z,9416.00
2024-04-07T08:28:56.810Z,8888.00
2024-04-07T08:29:56.780Z,8268.00
2024-04-07T08:30:56.749Z,7824.00
2024-04-07T08:31:56.812Z,7292.00
2024-04-07T08:32:57.691Z,6820.00
2024-04-07T08:33:56.711Z,6516.00
2024-04-07T08:34:56.727Z,6356.00
2024-04-07T08:35:56.703Z,6156.00
2024-04-07T08:36:56.691Z,5932.00
2024-04-07T08:37:56.715Z,5792.00
2024-04-07T08:38:56.661Z,5644.00
2024-04-07T08:39:56.675Z,5564.00
2024-04-07T08:40:56.667Z,5536.00
2024-04-07T08:41:56.630Z,5348.00
2024-04-07T08:42:56.619Z,5152.00
2024-04-07T08:43:58.854Z,5028.00
2024-04-07T08:44:56.596Z,4960.00
2024-04-07T08:45:57.546Z,4932.00
2024-04-07T08:46:56.607Z,4904.00
2024-04-07T08:47:56.594Z,4956.00
2024-04-07T08:48:56.551Z,4964.00
2024-04-07T08:49:56.560Z,4964.00
2024-04-07T08:50:56.552Z,4948.00
2024-04-07T08:51:57.505Z,4908.00
2024-04-07T08:52:56.530Z,4884.00
2024-04-07T08:53:56.484Z,4996.00
2024-04-07T08:54:56.538Z,5196.00
2024-04-07T08:55:56.538Z,5424.00
2024-04-07T08:56:56.483Z,5768.00
2024-04-07T08:57:56.445Z,6212.00
2024-04-07T08:58:56.495Z,6660.00
2024-04-07T08:59:56.427Z,7116.00
2024-04-07T09:00:56.409Z,7436.00
2024-04-07T09:01:56.876Z,7556.00
2024-04-07T09:02:56.403Z,7736.00
2024-04-07T09:03:56.375Z,8048.00
2024-04-07T09:04:56.846Z,8456.00
2024-04-07T09:05:56.388Z,8716.00
2024-04-07T09:06:56.376Z,8760.00
2024-04-07T09:07:56.384Z,9020.00
2024-04-07T09:08:56.346Z,9352.00
2024-04-07T09:09:56.309Z,9836.00
2024-04-07T09:10:56.416Z,10156.00
2024-04-07T09:11:56.326Z,10168.00
2024-04-07T09:12:56.267Z,10196.00
2024-04-07T09:13:56.328Z,10248.00
2024-04-07T09:14:56.268Z,10164.00
2024-04-07T09:15:56.263Z,10336.00
2024-04-07T09:16:56.302Z,10928.00
2024-04-07T09:17:56.223Z,11628.00
2024-04-07T09:18:58.558Z,12376.00
2024-04-07T09:19:56.246Z,12948.00
2024-04-07T09:20:56.186Z,12904.00
2024-04-07T09:21:56.190Z,13132.00
2024-04-07T09:22:56.246Z,13676.00
2024-04-07T09:23:56.168Z,14404.00
2024-04-07T09:24:56.151Z,14808.00
2024-04-07T09:25:56.153Z,15744.00
2024-04-07T09:26:56.138Z,16896.00
2024-04-07T09:27:56.104Z,17696.00
2024-04-07T09:28:56.325Z,18112.00
2024-04-07T09:29:56.125Z,18528.00
2024-04-07T09:30:56.096Z,18752.00
2024-04-07T09:31:56.109Z,18752.00
2024-04-07T09:32:56.080Z,18944.00
2024-04-07T09:33:57.075Z,19392.00
2024-04-07T09:34:56.281Z,19264.00
2024-04-07T09:35:56.034Z,18976.00
2024-04-07T09:36:56.989Z,18528.00
2024-04-07T09:37:56.997Z,19360.00
2024-04-07T09:38:56.016Z,19168.00
2024-04-07T09:39:55.982Z,19072.00
2024-04-07T09:40:56.053Z,18592.00
2024-04-07T09:41:56.679Z,18336.00
2024-04-07T09:42:55.968Z,18112.00
2024-04-07T09:43:56.021Z,18016.00
2024-04-07T09:44:55.937Z,17984.00
2024-04-07T09:45:55.910Z,17984.00
2024-04-07T09:46:56.013Z,17920.00
2024-04-07T09:47:55.912Z,17920.00
2024-04-07T09:48:55.877Z,17696.00
2024-04-07T09:49:55.869Z,17664.00
2024-04-07T09:50:55.952Z,18080.00
2024-04-07T09:51:55.866Z,18080.00
2024-04-07T09:52:56.003Z,18080.00
2024-04-07T09:53:55.846Z,18240.00
2024-04-07T09:54:55.852Z,18464.00
2024-04-07T09:55:55.830Z,19648.00
2024-04-07T09:56:55.831Z,21024.00
2024-04-07T09:57:55.796Z,19840.00
2024-04-07T09:58:55.818Z,18496.00
2024-04-07T09:59:55.796Z,21312.00
2024-04-07T10:00:55.781Z,27840.00
2024-04-07T10:01:55.731Z,30656.00
2024-04-07T10:02:55.746Z,28864.00
2024-04-07T10:04:09.435Z,25312.00
2024-04-07T10:04:55.719Z,20480.00
2024-04-07T10:05:57.461Z,19200.00
2024-04-07T10:06:55.719Z,18336.00
2024-04-07T10:07:55.673Z,18496.00
2024-04-07T10:08:55.745Z,18816.00
2024-04-07T10:09:55.678Z,18112.00
2024-04-07T10:11:04.461Z,19392.00
2024-04-07T10:11:56.648Z,20064.00
2024-04-07T10:12:55.657Z,20832.00
2024-04-07T10:13:55.632Z,22368.00
2024-04-07T10:14:55.714Z,22592.00
2024-04-07T10:15:55.613Z,23936.00
2024-04-07T10:16:55.636Z,25504.00
2024-04-07T10:17:55.597Z,23328.00
2024-04-07T10:18:55.721Z,25024.00
2024-04-07T10:19:55.695Z,23328.00
2024-04-07T10:20:55.617Z,23200.00
2024-04-07T10:21:55.611Z,26272.00
2024-04-07T10:22:55.530Z,25248.00
2024-04-07T10:23:55.514Z,27488.00
2024-04-07T10:24:55.516Z,25600.00
2024-04-07T10:25:55.492Z,21056.00
2024-04-07T10:26:55.518Z,19808.00
2024-04-07T10:27:55.497Z,19136.00
2024-04-07T10:28:55.451Z,18272.00
2024-04-07T10:29:55.482Z,18432.00
2024-04-07T10:30:55.425Z,19264.00
2024-04-07T10:31:55.454Z,20384.00
2024-04-07T10:32:55.477Z,20960.00
2024-04-07T10:33:55.411Z,21024.00
2024-04-07T10:34:55.396Z,21632.00
2024-04-07T10:35:55.412Z,23104.00
2024-04-07T10:36:55.357Z,24608.00
2024-04-07T10:37:56.301Z,25792.00
2024-04-07T10:38:55.372Z,24800.00
2024-04-07T10:39:55.391Z,22656.00
2024-04-07T10:40:55.310Z,22144.00
2024-04-07T10:41:55.327Z,22400.00
2024-04-07T10:42:55.299Z,22784.00
2024-04-07T10:43:55.300Z,24896.00
2024-04-07T10:44:55.268Z,27616.00
2024-04-07T10:45:55.316Z,24192.00
2024-04-07T10:46:55.301Z,21728.00
2024-04-07T10:47:55.240Z,21408.00
2024-04-07T10:48:55.254Z,19168.00
2024-04-07T10:49:55.242Z,19808.00
2024-04-07T10:50:55.235Z,21248.00
2024-04-07T10:51:55.251Z,23456.00
2024-04-07T10:52:55.207Z,24320.00
2024-04-07T10:53:55.173Z,24736.00
2024-04-07T10:54:55.186Z,25856.00
2024-04-07T10:55:55.156Z,25888.00
2024-04-07T10:56:55.156Z,34880.00
2024-04-07T10:57:55.178Z,30464.00
2024-04-07T10:58:55.147Z,46048.00
2024-04-07T10:59:55.913Z,29952.00
2024-04-07T11:00:55.127Z,31136.00
2024-04-07T11:01:55.117Z,27616.00
2024-04-07T11:02:55.079Z,25600.00
2024-04-07T11:03:55.147Z,25184.00
2024-04-07T11:04:55.075Z,22336.00
2024-04-07T11:05:55.073Z,20576.00
2024-04-07T11:06:55.036Z,20000.00
2024-04-07T11:07:55.026Z,21024.00
2024-04-07T11:08:55.046Z,20704.00
2024-04-07T11:09:55.162Z,19776.00
2024-04-07T11:10:55.006Z,18496.00
2024-04-07T11:11:54.996Z,19072.00
2024-04-07T11:12:54.995Z,20288.00
2024-04-07T11:13:54.957Z,21568.00
2024-04-07T11:14:54.989Z,23392.00
2024-04-07T11:15:54.987Z,25088.00
2024-04-07T11:16:54.953Z,24928.00
2024-04-07T11:17:54.945Z,26656.00
2024-04-07T11:18:54.936Z,26912.00
2024-04-07T11:19:54.918Z,26784.00
2024-04-07T11:20:54.895Z,27776.00
2024-04-07T11:21:54.903Z,25056.00
2024-04-07T11:22:54.896Z,27008.00
2024-04-07T11:23:54.916Z,30208.00
2024-04-07T11:24:54.846Z,31456.00
2024-04-07T11:26:05.035Z,31488.00
2024-04-07T11:27:08.489Z,34272.00
2024-04-07T11:27:54.812Z,62912.00
2024-04-07T11:29:03.706Z,21248.00
2024-04-07T11:29:54.780Z,19456.00
2024-04-07T11:31:04.930Z,18080.00
2024-04-07T11:32:07.491Z,17536.00
2024-04-07T11:32:55.769Z,17600.00
2024-04-07T11:33:54.770Z,17856.00
2024-04-07T11:34:54.794Z,17824.00
2024-04-07T11:35:54.781Z,17856.00
2024-04-07T11:36:54.757Z,17792.00
2024-04-07T11:37:54.895Z,18400.00
2024-04-07T11:38:54.735Z,18944.00
2024-04-07T11:39:57.224Z,19232.00
2024-04-07T11:40:54.691Z,19584.00
2024-04-07T11:41:54.674Z,20000.00
2024-04-07T11:42:55.634Z,20512.00
2024-04-07T11:43:54.661Z,21248.00
2024-04-07T11:44:54.670Z,22016.00
2024-04-07T11:45:54.605Z,23040.00
2024-04-07T11:46:54.627Z,23776.00
2024-04-07T11:47:54.583Z,24192.00
2024-04-07T11:48:54.611Z,25792.00
2024-04-07T11:49:54.553Z,28768.00
2024-04-07T11:50:54.617Z,32768.00
2024-04-07T11:51:54.565Z,55968.00
2024-04-07T11:52:54.530Z,39200.00
2024-04-07T11:53:54.548Z,36224.00
2024-04-07T11:54:54.521Z,38848.00
2024-04-07T11:55:54.522Z,32512.00
2024-04-07T11:56:54.522Z,30176.00
2024-04-07T11:57:54.487Z,29920.00
2024-04-07T11:58:54.497Z,31328.00
2024-04-07T11:59:54.477Z,35616.00
2024-04-07T12:00:54.447Z,37088.00
2024-04-07T12:01:54.465Z,37824.00
2024-04-07T12:02:54.744Z,39968.00
2024-04-07T12:03:54.427Z,38304.00
2024-04-07T12:04:54.435Z,54432.00
2024-04-07T12:05:54.981Z,63168.00
2024-04-07T12:06:54.486Z,54944.00
2024-04-07T12:07:54.404Z,59008.00
2024-04-07T12:08:54.704Z,57984.00
2024-04-07T12:09:54.353Z,54688.00
2024-04-07T12:10:54.396Z,48192.00
2024-04-07T12:11:54.322Z,63104.00
2024-04-07T12:12:54.358Z,79072.00
2024-04-07T12:13:54.305Z,61376.00
2024-04-07T12:14:54.379Z,60128.00
2024-04-07T12:15:54.308Z,57312.00
2024-04-07T12:16:54.283Z,67008.00
2024-04-07T12:17:54.296Z,58272.00
2024-04-07T12:18:54.517Z,72448.00
2024-04-07T12:19:55.223Z,77088.00
2024-04-07T12:20:54.300Z,77536.00
2024-04-07T12:21:54.291Z,67648.00
2024-04-07T12:22:54.333Z,69056.00
2024-04-07T12:23:54.245Z,67392.00
2024-04-07T12:24:55.542Z,68256.00